sensor_id;sensor_type;location;lat;lon;timestamp;pressure;altitude;pressure_sealevel;temperature;humidity
8069;BME280;4077;43.702;24.896;2023-05-24T00:01:12;99192.97;;;14.52;100.00
8069;BME280;4077;43.702;24.896;2023-05-24T00:03:38;99196.53;;;14.37;100.00
8069;BME280;4077;43.702;24.896;2023-05-24T00:06:04;99188.81;;;14.31;100.00
8069;BME280;4077;43.702;24.896;2023-05-24T00:08:32;99190.56;;;14.27;100.00
8069;BME280;4077;43.702;24.896;2023-05-24T00:10:57;99194.06;;;14.23;100.00
8069;BME280;4077;43.702;24.896;2023-05-24T00:13:23;99195.00;;;14.14;100.00
8069;BME280;4077;43.702;24.896;2023-05-24T00:15:48;99186.41;;;14.06;100.00
8069;BME280;4077;43.702;24.896;2023-05-24T00:18:14;99166.72;;;13.76;100.00
8069;BME280;4077;43.702;24.896;2023-05-24T00:20:42;99188.31;;;13.83;100.00
8069;BME280;4077;43.702;24.896;2023-05-24T00:23:07;99198.72;;;13.80;100.00
8069;BME280;4077;43.702;24.896;2023-05-24T00:25:33;99181.47;;;13.69;100.00
8069;BME280;4077;43.702;24.896;2023-05-24T00:27:59;99190.19;;;13.59;100.00
8069;BME280;4077;43.702;24.896;2023-05-24T00:30:24;99180.72;;;13.52;100.00
8069;BME280;4077;43.702;24.896;2023-05-24T00:32:50;99173.00;;;13.37;100.00
8069;BME280;4077;43.702;24.896;2023-05-24T00:35:16;99164.38;;;13.30;100.00
8069;BME280;4077;43.702;24.896;2023-05-24T00:37:41;99184.13;;;13.56;100.00
8069;BME280;4077;43.702;24.896;2023-05-24T00:40:10;99174.59;;;13.58;100.00
8069;BME280;4077;43.702;24.896;2023-05-24T00:42:35;99182.34;;;13.67;100.00
8069;BME280;4077;43.702;24.896;2023-05-24T00:45:01;99193.53;;;13.80;100.00
8069;BME280;4077;43.702;24.896;2023-05-24T00:47:26;99183.16;;;13.77;100.00
8069;BME280;4077;43.702;24.896;2023-05-24T00:49:52;99194.34;;;13.86;100.00
8069;BME280;4077;43.702;24.896;2023-05-24T00:52:17;99173.63;;;13.80;100.00
8069;BME280;4077;43.702;24.896;2023-05-24T00:54:43;99182.28;;;13.78;100.00
8069;BME280;4077;43.702;24.896;2023-05-24T00:57:09;99171.13;;;13.66;100.00
8069;BME280;4077;43.702;24.896;2023-05-24T00:59:38;99176.31;;;13.66;100.00
8069;BME280;4077;43.702;24.896;2023-05-24T01:02:04;99182.31;;;13.70;100.00
8069;BME280;4077;43.702;24.896;2023-05-24T01:04:29;99176.28;;;13.69;100.00
8069;BME280;4077;43.702;24.896;2023-05-24T01:10:03;99185.75;;;13.80;100.00
8069;BME280;4077;43.702;24.896;2023-05-24T01:12:49;99183.13;;;13.78;100.00
8069;BME280;4077;43.702;24.896;2023-05-24T01:15:27;99178.88;;;13.73;100.00
8069;BME280;4077;43.702;24.896;2023-05-24T01:18:06;99185.75;;;13.75;100.00
8069;BME280;4077;43.702;24.896;2023-05-24T01:20:36;99184.06;;;13.73;100.00
8069;BME280;4077;43.702;24.896;2023-05-24T01:24:07;99190.91;;;13.83;100.00
8069;BME280;4077;43.702;24.896;2023-05-24T01:26:38;99191.00;;;13.64;100.00
8069;BME280;4077;43.702;24.896;2023-05-24T01:29:05;99188.53;;;13.46;100.00
8069;BME280;4077;43.702;24.896;2023-05-24T01:31:32;99198.88;;;13.49;100.00
8069;BME280;4077;43.702;24.896;2023-05-24T01:33:58;99192.81;;;13.49;100.00
8069;BME280;4077;43.702;24.896;2023-05-24T01:36:23;99204.09;;;13.37;100.00
8069;BME280;4077;43.702;24.896;2023-05-24T01:38:49;99214.44;;;13.43;100.00
8069;BME280;4077;43.702;24.896;2023-05-24T01:41:35;99221.34;;;13.53;100.00
8069;BME280;4077;43.702;24.896;2023-05-24T01:47:00;99215.28;;;13.51;100.00
8069;BME280;4077;43.702;24.896;2023-05-24T01:49:29;99217.91;;;13.48;100.00
8069;BME280;4077;43.702;24.896;2023-05-24T01:54:22;99220.53;;;13.39;100.00
8069;BME280;4077;43.702;24.896;2023-05-24T01:56:51;99188.63;;;13.15;100.00
8069;BME280;4077;43.702;24.896;2023-05-24T01:59:19;99195.56;;;13.12;100.00
8069;BME280;4077;43.702;24.896;2023-05-24T02:01:45;99223.19;;;13.14;100.00
8069;BME280;4077;43.702;24.896;2023-05-24T02:04:11;99215.44;;;13.01;100.00
8069;BME280;4077;43.702;24.896;2023-05-24T02:06:37;99207.69;;;12.99;100.00
8069;BME280;4077;43.702;24.896;2023-05-24T02:09:02;99202.50;;;12.96;100.00
8069;BME280;4077;43.702;24.896;2023-05-24T02:11:28;99198.22;;;12.92;100.00
8069;BME280;4077;43.702;24.896;2023-05-24T02:13:53;99193.00;;;12.95;100.00
8069;BME280;4077;43.702;24.896;2023-05-24T02:16:18;99169.75;;;12.77;100.00
8069;BME280;4077;43.702;24.896;2023-05-24T02:18:44;99191.28;;;12.93;100.00
8069;BME280;4077;43.702;24.896;2023-05-24T02:21:11;99183.50;;;12.94;100.00
8069;BME280;4077;43.702;24.896;2023-05-24T02:23:37;99199.94;;;12.98;100.00
8069;BME280;4077;43.702;24.896;2023-05-24T02:26:02;99185.25;;;12.83;100.00
8069;BME280;4077;43.702;24.896;2023-05-24T02:28:28;99197.34;;;12.93;100.00
8069;BME280;4077;43.702;24.896;2023-05-24T02:30:56;99191.28;;;12.97;100.00
8069;BME280;4077;43.702;24.896;2023-05-24T02:33:22;99186.13;;;12.91;100.00
8069;BME280;4077;43.702;24.896;2023-05-24T02:35:50;99197.34;;;12.82;100.00
8069;BME280;4077;43.702;24.896;2023-05-24T02:38:16;99201.69;;;12.79;100.00
8069;BME280;4077;43.702;24.896;2023-05-24T02:40:41;99198.25;;;12.74;100.00
8069;BME280;4077;43.702;24.896;2023-05-24T02:43:06;99195.59;;;12.89;100.00
8069;BME280;4077;43.702;24.896;2023-05-24T02:45:33;99211.09;;;13.07;100.00
8069;BME280;4077;43.702;24.896;2023-05-24T02:48:00;99208.53;;;13.03;100.00
8069;BME280;4077;43.702;24.896;2023-05-24T02:50:26;99212.00;;;13.00;100.00
8069;BME280;4077;43.702;24.896;2023-05-24T02:52:51;99189.59;;;12.76;100.00
8069;BME280;4077;43.702;24.896;2023-05-24T02:55:17;99178.44;;;12.64;100.00
8069;BME280;4077;43.702;24.896;2023-05-24T02:57:42;99195.63;;;12.75;100.00
8069;BME280;4077;43.702;24.896;2023-05-24T03:00:08;99202.53;;;12.81;100.00
8069;BME280;4077;43.702;24.896;2023-05-24T03:02:35;99204.25;;;12.88;100.00
8069;BME280;4077;43.702;24.896;2023-05-24T03:05:03;99196.50;;;12.82;100.00
8069;BME280;4077;43.702;24.896;2023-05-24T03:07:28;99200.81;;;12.83;100.00
8069;BME280;4077;43.702;24.896;2023-05-24T03:09:54;99214.63;;;12.85;100.00
8069;BME280;4077;43.702;24.896;2023-05-24T03:12:19;99215.50;;;12.85;100.00
8069;BME280;4077;43.702;24.896;2023-05-24T03:14:45;99216.34;;;12.83;100.00
8069;BME280;4077;43.702;24.896;2023-05-24T03:17:10;99205.16;;;12.73;100.00
8069;BME280;4077;43.702;24.896;2023-05-24T03:19:35;99216.34;;;12.75;100.00
8069;BME280;4077;43.702;24.896;2023-05-24T03:22:02;99216.38;;;12.71;100.00
8069;BME280;4077;43.702;24.896;2023-05-24T03:24:27;99218.94;;;12.80;100.00
8069;BME280;4077;43.702;24.896;2023-05-24T03:26:53;99222.41;;;12.77;100.00
8069;BME280;4077;43.702;24.896;2023-05-24T03:29:18;99226.72;;;12.81;100.00
8069;BME280;4077;43.702;24.896;2023-05-24T03:31:43;99223.28;;;12.84;100.00
8069;BME280;4077;43.702;24.896;2023-05-24T03:34:09;99206.03;;;12.65;100.00
8069;BME280;4077;43.702;24.896;2023-05-24T03:36:34;99218.09;;;12.84;100.00
8069;BME280;4077;43.702;24.896;2023-05-24T03:39:00;99220.66;;;12.88;100.00
8069;BME280;4077;43.702;24.896;2023-05-24T03:41:28;99223.22;;;12.95;100.00
8069;BME280;4077;43.702;24.896;2023-05-24T03:43:54;99210.31;;;12.92;100.00
8069;BME280;4077;43.702;24.896;2023-05-24T03:46:19;99222.31;;;13.09;100.00
8069;BME280;4077;43.702;24.896;2023-05-24T03:48:45;99218.00;;;13.08;100.00
8069;BME280;4077;43.702;24.896;2023-05-24T03:51:10;99232.66;;;13.17;100.00
8069;BME280;4077;43.702;24.896;2023-05-24T03:53:36;99233.53;;;13.22;100.00
8069;BME280;4077;43.702;24.896;2023-05-24T03:56:02;99203.34;;;13.07;100.00
8069;BME280;4077;43.702;24.896;2023-05-24T03:58:27;99230.94;;;13.28;100.00
8069;BME280;4077;43.702;24.896;2023-05-24T04:00:52;99228.34;;;13.33;100.00
8069;BME280;4077;43.702;24.896;2023-05-24T04:03:18;99222.28;;;13.32;100.00
8069;BME280;4077;43.702;24.896;2023-05-24T04:05:44;99183.47;;;13.12;100.00
8069;BME280;4077;43.702;24.896;2023-05-24T04:08:10;99229.16;;;13.43;100.00
8069;BME280;4077;43.702;24.896;2023-05-24T04:10:36;99217.06;;;13.41;100.00
8069;BME280;4077;43.702;24.896;2023-05-24T04:13:02;99219.66;;;13.46;100.00
8069;BME280;4077;43.702;24.896;2023-05-24T04:15:27;99241.16;;;13.62;100.00
8069;BME280;4077;43.702;24.896;2023-05-24T04:17:53;99226.44;;;13.67;100.00
8069;BME280;4077;43.702;24.896;2023-05-24T04:20:20;99244.50;;;13.88;100.00
8069;BME280;4077;43.702;24.896;2023-05-24T04:22:50;99252.19;;;14.02;100.00
8069;BME280;4077;43.702;24.896;2023-05-24T04:25:16;99233.19;;;13.95;100.00
8069;BME280;4077;43.702;24.896;2023-05-24T04:27:41;99252.06;;;14.19;100.00
8069;BME280;4077;43.702;24.896;2023-05-24T04:30:07;99260.66;;;14.29;100.00
8069;BME280;4077;43.702;24.896;2023-05-24T04:32:33;99253.72;;;14.29;100.00
8069;BME280;4077;43.702;24.896;2023-05-24T04:35:00;99263.19;;;14.38;100.00
8069;BME280;4077;43.702;24.896;2023-05-24T04:37:27;99264.84;;;14.45;100.00
8069;BME280;4077;43.702;24.896;2023-05-24T04:39:53;99251.91;;;14.48;100.00
8069;BME280;4077;43.702;24.896;2023-05-24T04:42:20;99264.72;;;14.66;100.00
8069;BME280;4077;43.702;24.896;2023-05-24T04:44:45;99261.22;;;14.67;100.00
8069;BME280;4077;43.702;24.896;2023-05-24T04:47:12;99262.75;;;14.88;100.00
8069;BME280;4077;43.702;24.896;2023-05-24T04:49:38;99258.44;;;14.89;100.00
8069;BME280;4077;43.702;24.896;2023-05-24T04:52:04;99247.31;;;14.76;100.00
8069;BME280;4077;43.702;24.896;2023-05-24T04:54:30;99262.47;;;15.19;100.00
8069;BME280;4077;43.702;24.896;2023-05-24T04:56:56;99257.34;;;15.11;100.00
8069;BME280;4077;43.702;24.896;2023-05-24T04:59:21;99272.50;;;15.52;100.00
8069;BME280;4077;43.702;24.896;2023-05-24T05:01:47;99270.84;;;15.42;100.00
8069;BME280;4077;43.702;24.896;2023-05-24T05:04:12;99269.78;;;15.60;100.00
8069;BME280;4077;43.702;24.896;2023-05-24T05:06:38;99275.06;;;15.54;100.00
8069;BME280;4077;43.702;24.896;2023-05-24T05:09:05;99283.66;;;15.62;100.00
8069;BME280;4077;43.702;24.896;2023-05-24T05:11:34;99284.44;;;15.69;100.00
8069;BME280;4077;43.702;24.896;2023-05-24T05:13:59;99281.59;;;15.89;100.00
8069;BME280;4077;43.702;24.896;2023-05-24T05:16:25;99279.75;;;15.97;100.00
8069;BME280;4077;43.702;24.896;2023-05-24T05:18:50;99281.50;;;15.95;100.00
8069;BME280;4077;43.702;24.896;2023-05-24T05:21:16;99279.72;;;16.00;100.00
8069;BME280;4077;43.702;24.896;2023-05-24T05:23:42;99290.13;;;16.00;100.00
8069;BME280;4077;43.702;24.896;2023-05-24T05:26:08;99285.69;;;16.05;100.00
8069;BME280;4077;43.702;24.896;2023-05-24T05:28:33;99280.41;;;16.11;100.00
8069;BME280;4077;43.702;24.896;2023-05-24T05:30:59;99298.31;;;16.32;100.00
8069;BME280;4077;43.702;24.896;2023-05-24T05:33:25;99298.19;;;16.41;100.00
8069;BME280;4077;43.702;24.896;2023-05-24T05:35:50;99295.28;;;16.60;100.00
8069;BME280;4077;43.702;24.896;2023-05-24T05:38:16;99294.44;;;16.58;100.00
8069;BME280;4077;43.702;24.896;2023-05-24T05:40:41;99299.50;;;16.67;100.00
8069;BME280;4077;43.702;24.896;2023-05-24T05:43:07;99281.03;;;16.84;100.00
8069;BME280;4077;43.702;24.896;2023-05-24T05:45:33;99311.34;;;17.37;100.00
8069;BME280;4077;43.702;24.896;2023-05-24T05:47:59;99316.44;;;17.45;100.00
8069;BME280;4077;43.702;24.896;2023-05-24T05:50:24;99309.34;;;17.52;100.00
8069;BME280;4077;43.702;24.896;2023-05-24T05:52:50;99311.78;;;17.59;100.00
8069;BME280;4077;43.702;24.896;2023-05-24T05:55:15;99313.66;;;17.53;100.00
8069;BME280;4077;43.702;24.896;2023-05-24T05:57:41;99322.34;;;17.53;100.00
8069;BME280;4077;43.702;24.896;2023-05-24T06:00:07;99317.63;;;17.70;100.00
8069;BME280;4077;43.702;24.896;2023-05-24T06:02:33;99317.50;;;17.80;100.00
8069;BME280;4077;43.702;24.896;2023-05-24T06:04:59;99320.16;;;17.78;100.00
8069;BME280;4077;43.702;24.896;2023-05-24T06:07:24;99322.72;;;17.80;100.00
8069;BME280;4077;43.702;24.896;2023-05-24T06:09:50;99330.16;;;17.99;100.00
8069;BME280;4077;43.702;24.896;2023-05-24T06:12:15;99330.63;;;18.17;100.00
8069;BME280;4077;43.702;24.896;2023-05-24T06:14:41;99337.00;;;18.44;100.00
8069;BME280;4077;43.702;24.896;2023-05-24T06:17:06;99337.78;;;18.47;100.00
8069;BME280;4077;43.702;24.896;2023-05-24T06:19:32;99319.78;;;18.35;100.00
8069;BME280;4077;43.702;24.896;2023-05-24T06:21:58;99343.38;;;18.71;100.00
8069;BME280;4077;43.702;24.896;2023-05-24T06:24:24;99340.47;;;18.83;100.00
8069;BME280;4077;43.702;24.896;2023-05-24T06:26:51;99356.06;;;18.86;100.00
8069;BME280;4077;43.702;24.896;2023-05-24T06:29:17;99354.19;;;18.91;100.00
8069;BME280;4077;43.702;24.896;2023-05-24T06:31:45;99364.28;;;19.06;100.00
8069;BME280;4077;43.702;24.896;2023-05-24T06:34:12;99365.53;;;19.26;100.00
8069;BME280;4077;43.702;24.896;2023-05-24T06:36:37;99365.47;;;19.29;100.00
8069;BME280;4077;43.702;24.896;2023-05-24T06:39:11;99351.47;;;19.62;100.00
8069;BME280;4077;43.702;24.896;2023-05-24T06:41:37;99379.34;;;19.96;100.00
8069;BME280;4077;43.702;24.896;2023-05-24T06:44:03;99372.41;;;19.95;100.00
8069;BME280;4077;43.702;24.896;2023-05-24T06:46:29;99376.16;;;20.16;100.00
8069;BME280;4077;43.702;24.896;2023-05-24T06:48:54;99369.81;;;20.25;100.00
8069;BME280;4077;43.702;24.896;2023-05-24T06:51:20;99385.59;;;20.51;100.00
8069;BME280;4077;43.702;24.896;2023-05-24T06:53:46;99370.78;;;20.50;100.00
8069;BME280;4077;43.702;24.896;2023-05-24T06:56:11;99371.22;;;20.64;100.00
8069;BME280;4077;43.702;24.896;2023-05-24T06:58:37;99382.31;;;21.00;100.00
8069;BME280;4077;43.702;24.896;2023-05-24T07:01:02;99385.78;;;21.27;100.00
8069;BME280;4077;43.702;24.896;2023-05-24T07:03:29;99378.00;;;21.24;100.00
8069;BME280;4077;43.702;24.896;2023-05-24T07:05:56;99363.50;;;21.39;100.00
8069;BME280;4077;43.702;24.896;2023-05-24T07:08:23;99387.94;;;21.91;100.00
8069;BME280;4077;43.702;24.896;2023-05-24T07:10:52;99367.19;;;22.07;100.00
8069;BME280;4077;43.702;24.896;2023-05-24T07:13:17;99387.50;;;22.03;100.00
8069;BME280;4077;43.702;24.896;2023-05-24T07:15:43;99385.06;;;22.22;100.00
8069;BME280;4077;43.702;24.896;2023-05-24T07:18:08;99386.91;;;22.20;100.00
8069;BME280;4077;43.702;24.896;2023-05-24T07:20:34;99386.47;;;22.07;100.00
8069;BME280;4077;43.702;24.896;2023-05-24T07:22:59;99377.78;;;22.29;100.00
8069;BME280;4077;43.702;24.896;2023-05-24T07:25:26;99390.59;;;22.38;100.00
8069;BME280;4077;43.702;24.896;2023-05-24T07:27:51;99380.13;;;22.36;100.00
8069;BME280;4077;43.702;24.896;2023-05-24T07:30:17;99388.59;;;22.45;98.41
8069;BME280;4077;43.702;24.896;2023-05-24T07:32:43;99378.41;;;22.35;100.00
8069;BME280;4077;43.702;24.896;2023-05-24T07:35:10;99389.16;;;22.53;100.00
8069;BME280;4077;43.702;24.896;2023-05-24T07:37:37;99377.72;;;22.54;100.00
8069;BME280;4077;43.702;24.896;2023-05-24T07:40:03;99362.53;;;22.38;100.00
8069;BME280;4077;43.702;24.896;2023-05-24T07:42:30;99388.69;;;22.65;100.00
8069;BME280;4077;43.702;24.896;2023-05-24T07:44:55;99384.69;;;22.77;100.00
8069;BME280;4077;43.702;24.896;2023-05-24T07:47:21;99391.84;;;23.17;97.91
8069;BME280;4077;43.702;24.896;2023-05-24T07:49:46;99397.00;;;23.20;95.91
8069;BME280;4077;43.702;24.896;2023-05-24T07:52:12;99409.25;;;23.41;96.08
8069;BME280;4077;43.702;24.896;2023-05-24T07:54:38;99397.13;;;23.37;95.09
8069;BME280;4077;43.702;24.896;2023-05-24T07:57:04;99404.00;;;23.41;93.39
8069;BME280;4077;43.702;24.896;2023-05-24T07:59:30;99399.50;;;23.43;93.51
8069;BME280;4077;43.702;24.896;2023-05-24T08:01:55;99400.44;;;23.42;94.01
8069;BME280;4077;43.702;24.896;2023-05-24T08:04:26;99393.72;;;23.35;96.44
8069;BME280;4077;43.702;24.896;2023-05-24T08:06:51;99415.13;;;23.48;93.56
8069;BME280;4077;43.702;24.896;2023-05-24T08:09:16;99404.81;;;23.64;92.94
8069;BME280;4077;43.702;24.896;2023-05-24T08:11:42;99394.66;;;23.55;92.80
8069;BME280;4077;43.702;24.896;2023-05-24T08:14:07;99398.31;;;23.51;92.21
8069;BME280;4077;43.702;24.896;2023-05-24T08:16:33;99371.81;;;23.54;91.48
8069;BME280;4077;43.702;24.896;2023-05-24T08:18:58;99407.44;;;23.84;91.18
8069;BME280;4077;43.702;24.896;2023-05-24T08:21:24;99383.59;;;23.67;90.38
8069;BME280;4077;43.702;24.896;2023-05-24T08:23:49;99397.31;;;23.94;88.78
8069;BME280;4077;43.702;24.896;2023-05-24T08:26:15;99408.25;;;24.05;87.19
8069;BME280;4077;43.702;24.896;2023-05-24T08:28:43;99405.34;;;24.11;86.09
8069;BME280;4077;43.702;24.896;2023-05-24T08:31:08;99416.81;;;24.29;84.91
8069;BME280;4077;43.702;24.896;2023-05-24T08:33:34;99403.50;;;24.32;83.55
8069;BME280;4077;43.702;24.896;2023-05-24T08:35:59;99420.34;;;24.48;83.65
8069;BME280;4077;43.702;24.896;2023-05-24T08:38:25;99420.22;;;24.51;82.59
8069;BME280;4077;43.702;24.896;2023-05-24T08:40:50;99406.81;;;24.56;80.19
8069;BME280;4077;43.702;24.896;2023-05-24T08:43:16;99424.34;;;24.76;80.36
8069;BME280;4077;43.702;24.896;2023-05-24T08:45:44;99421.41;;;24.82;75.83
8069;BME280;4077;43.702;24.896;2023-05-24T08:48:10;99409.72;;;24.69;74.42
8069;BME280;4077;43.702;24.896;2023-05-24T08:50:37;99413.34;;;24.85;71.59
8069;BME280;4077;43.702;24.896;2023-05-24T08:53:05;99419.03;;;24.95;70.26
8069;BME280;4077;43.702;24.896;2023-05-24T08:55:31;99422.09;;;25.04;67.48
8069;BME280;4077;43.702;24.896;2023-05-24T08:57:58;99419.19;;;25.28;67.43
8069;BME280;4077;43.702;24.896;2023-05-24T09:00:24;99419.97;;;25.30;64.65
8069;BME280;4077;43.702;24.896;2023-05-24T09:02:51;99419.34;;;25.42;64.09
8069;BME280;4077;43.702;24.896;2023-05-24T09:05:18;99405.69;;;25.34;62.99
8069;BME280;4077;43.702;24.896;2023-05-24T09:07:47;99420.91;;;25.46;63.40
8069;BME280;4077;43.702;24.896;2023-05-24T09:10:13;99392.69;;;25.29;63.65
8069;BME280;4077;43.702;24.896;2023-05-24T09:12:43;99409.09;;;25.36;63.59
8069;BME280;4077;43.702;24.896;2023-05-24T09:15:10;99413.13;;;25.43;63.72
8069;BME280;4077;43.702;24.896;2023-05-24T09:17:36;99418.59;;;25.40;63.21
8069;BME280;4077;43.702;24.896;2023-05-24T09:20:03;99422.13;;;25.39;61.92
8069;BME280;4077;43.702;24.896;2023-05-24T09:22:31;99424.88;;;25.55;61.17
8069;BME280;4077;43.702;24.896;2023-05-24T09:25:01;99413.75;;;25.83;61.06
8069;BME280;4077;43.702;24.896;2023-05-24T09:27:27;99427.00;;;26.16;59.62
8069;BME280;4077;43.702;24.896;2023-05-24T09:29:55;99423.09;;;26.39;57.64
8069;BME280;4077;43.702;24.896;2023-05-24T09:32:22;99435.28;;;27.06;56.64
8069;BME280;4077;43.702;24.896;2023-05-24T09:34:50;99440.09;;;27.90;52.71
8069;BME280;4077;43.702;24.896;2023-05-24T09:37:18;99446.28;;;28.88;51.92
8069;BME280;4077;43.702;24.896;2023-05-24T09:39:46;99447.22;;;29.29;48.29
8069;BME280;4077;43.702;24.896;2023-05-24T09:42:18;99443.38;;;29.20;49.45
8069;BME280;4077;43.702;24.896;2023-05-24T09:44:51;99449.78;;;28.89;49.52
8069;BME280;4077;43.702;24.896;2023-05-24T09:47:27;99433.28;;;28.28;49.67
8069;BME280;4077;43.702;24.896;2023-05-24T09:49:53;99436.56;;;27.75;51.32
8069;BME280;4077;43.702;24.896;2023-05-24T09:52:20;99436.53;;;27.15;51.86
8069;BME280;4077;43.702;24.896;2023-05-24T09:54:46;99425.19;;;26.81;52.73
8069;BME280;4077;43.702;24.896;2023-05-24T09:57:14;99427.16;;;26.78;52.82
8069;BME280;4077;43.702;24.896;2023-05-24T09:59:41;99407.84;;;26.44;53.01
8069;BME280;4077;43.702;24.896;2023-05-24T10:02:08;99419.06;;;26.32;53.17
8069;BME280;4077;43.702;24.896;2023-05-24T10:04:40;99398.84;;;26.31;53.77
8069;BME280;4077;43.702;24.896;2023-05-24T10:07:06;99390.19;;;26.11;54.17
8069;BME280;4077;43.702;24.896;2023-05-24T10:09:33;99411.03;;;26.17;54.47
8069;BME280;4077;43.702;24.896;2023-05-24T10:12:04;99418.22;;;26.31;54.91
8069;BME280;4077;43.702;24.896;2023-05-24T10:14:37;99409.75;;;26.25;55.03
8069;BME280;4077;43.702;24.896;2023-05-24T10:17:06;99413.34;;;26.24;53.62
8069;BME280;4077;43.702;24.896;2023-05-24T10:19:35;99415.38;;;26.18;53.56
8069;BME280;4077;43.702;24.896;2023-05-24T10:22:05;99405.97;;;26.13;53.85
8069;BME280;4077;43.702;24.896;2023-05-24T10:24:34;99403.13;;;26.00;54.56
8069;BME280;4077;43.702;24.896;2023-05-24T10:27:03;99403.28;;;26.30;54.50
8069;BME280;4077;43.702;24.896;2023-05-24T10:32:32;99409.31;;;26.65;52.98
8069;BME280;4077;43.702;24.896;2023-05-24T10:35:00;99391.28;;;26.56;52.59
8069;BME280;4077;43.702;24.896;2023-05-24T10:37:26;99403.66;;;26.56;53.33
8069;BME280;4077;43.702;24.896;2023-05-24T10:39:52;99392.53;;;26.81;52.64
8069;BME280;4077;43.702;24.896;2023-05-24T10:42:18;99402.13;;;26.67;52.22
8069;BME280;4077;43.702;24.896;2023-05-24T10:44:44;99393.06;;;26.40;52.55
8069;BME280;4077;43.702;24.896;2023-05-24T10:47:11;99379.03;;;26.38;53.43
8069;BME280;4077;43.702;24.896;2023-05-24T10:49:50;99392.38;;;26.36;52.52
8069;BME280;4077;43.702;24.896;2023-05-24T10:52:17;99381.41;;;26.27;52.06
8069;BME280;4077;43.702;24.896;2023-05-24T10:55:18;99384.97;;;26.43;52.12
8069;BME280;4077;43.702;24.896;2023-05-24T10:57:44;99376.69;;;26.49;52.29
8069;BME280;4077;43.702;24.896;2023-05-24T11:02:48;99376.84;;;26.62;51.10
8069;BME280;4077;43.702;24.896;2023-05-24T11:05:13;99374.81;;;26.51;51.20
8069;BME280;4077;43.702;24.896;2023-05-24T11:07:43;99377.34;;;26.68;51.07
8069;BME280;4077;43.702;24.896;2023-05-24T11:10:13;99379.75;;;26.73;51.50
8069;BME280;4077;43.702;24.896;2023-05-24T11:12:42;99372.38;;;26.62;51.24
8069;BME280;4077;43.702;24.896;2023-05-24T11:15:09;99364.22;;;26.51;52.48
8069;BME280;4077;43.702;24.896;2023-05-24T11:20:37;99366.41;;;26.75;49.91
8069;BME280;4077;43.702;24.896;2023-05-24T11:23:04;99355.81;;;26.75;49.85
8069;BME280;4077;43.702;24.896;2023-05-24T11:25:31;99361.31;;;27.02;48.56
8069;BME280;4077;43.702;24.896;2023-05-24T11:27:57;99370.03;;;27.19;48.99
8069;BME280;4077;43.702;24.896;2023-05-24T11:30:23;99362.59;;;27.10;48.59
8069;BME280;4077;43.702;24.896;2023-05-24T11:32:48;99358.91;;;26.67;49.05
8069;BME280;4077;43.702;24.896;2023-05-24T11:35:14;99352.56;;;26.69;48.38
8069;BME280;4077;43.702;24.896;2023-05-24T11:37:40;99351.31;;;26.77;50.08
8069;BME280;4077;43.702;24.896;2023-05-24T11:40:07;99351.88;;;26.82;49.44
8069;BME280;4077;43.702;24.896;2023-05-24T11:42:36;99350.50;;;26.75;49.10
8069;BME280;4077;43.702;24.896;2023-05-24T11:45:07;99343.22;;;26.94;49.43
8069;BME280;4077;43.702;24.896;2023-05-24T11:47:34;99334.03;;;26.69;49.06
8069;BME280;4077;43.702;24.896;2023-05-24T11:50:01;99345.22;;;26.75;49.29
8069;BME280;4077;43.702;24.896;2023-05-24T11:52:27;99343.34;;;26.77;47.95
8069;BME280;4077;43.702;24.896;2023-05-24T11:54:53;99336.50;;;26.72;49.16
8069;BME280;4077;43.702;24.896;2023-05-24T11:57:40;99331.81;;;26.78;49.38
8069;BME280;4077;43.702;24.896;2023-05-24T12:00:10;99335.50;;;26.59;48.36
8069;BME280;4077;43.702;24.896;2023-05-24T12:03:06;99330.41;;;26.56;48.50
8069;BME280;4077;43.702;24.896;2023-05-24T12:05:33;99327.16;;;26.51;49.31
8069;BME280;4077;43.702;24.896;2023-05-24T12:08:02;99320.72;;;26.55;48.89
8069;BME280;4077;43.702;24.896;2023-05-24T12:10:31;99319.38;;;26.64;48.37
8069;BME280;4077;43.702;24.896;2023-05-24T12:12:56;99320.66;;;26.41;47.93
8069;BME280;4077;43.702;24.896;2023-05-24T12:15:22;99309.53;;;26.18;49.59
8069;BME280;4077;43.702;24.896;2023-05-24T12:17:47;99312.38;;;26.15;48.90
8069;BME280;4077;43.702;24.896;2023-05-24T12:20:14;99306.31;;;26.29;49.12
8069;BME280;4077;43.702;24.896;2023-05-24T12:22:49;99304.25;;;26.18;48.81
8069;BME280;4077;43.702;24.896;2023-05-24T12:25:19;99288.69;;;26.12;49.35
8069;BME280;4077;43.702;24.896;2023-05-24T12:27:52;99299.28;;;26.12;49.08
8069;BME280;4077;43.702;24.896;2023-05-24T12:30:24;99290.22;;;26.01;48.80
8069;BME280;4077;43.702;24.896;2023-05-24T12:32:50;99295.19;;;25.91;49.84
8069;BME280;4077;43.702;24.896;2023-05-24T12:35:19;99297.75;;;26.08;49.04
8069;BME280;4077;43.702;24.896;2023-05-24T12:37:45;99283.59;;;26.09;49.64
8069;BME280;4077;43.702;24.896;2023-05-24T12:40:20;99281.19;;;26.05;50.81
8069;BME280;4077;43.702;24.896;2023-05-24T12:42:52;99290.84;;;26.06;51.14
8069;BME280;4077;43.702;24.896;2023-05-24T12:45:19;99290.06;;;26.19;50.79
8069;BME280;4077;43.702;24.896;2023-05-24T12:47:57;99280.44;;;26.18;51.55
8069;BME280;4077;43.702;24.896;2023-05-24T12:50:24;99275.63;;;25.94;49.91
8069;BME280;4077;43.702;24.896;2023-05-24T12:52:51;99284.94;;;25.85;51.81
8069;BME280;4077;43.702;24.896;2023-05-24T12:55:18;99288.19;;;25.90;50.42
8069;BME280;4077;43.702;24.896;2023-05-24T12:57:44;99282.03;;;25.74;49.09
8069;BME280;4077;43.702;24.896;2023-05-24T13:00:17;99283.78;;;25.73;49.87
8069;BME280;4077;43.702;24.896;2023-05-24T13:02:43;99272.09;;;25.61;50.31
8069;BME280;4077;43.702;24.896;2023-05-24T13:05:09;99265.41;;;25.54;50.20
8069;BME280;4077;43.702;24.896;2023-05-24T13:07:35;99267.75;;;25.43;51.93
8069;BME280;4077;43.702;24.896;2023-05-24T13:10:00;99234.00;;;25.32;51.78
8069;BME280;4077;43.702;24.896;2023-05-24T13:12:26;99267.38;;;25.67;50.43
8069;BME280;4077;43.702;24.896;2023-05-24T13:14:52;99263.31;;;25.61;48.96
8069;BME280;4077;43.702;24.896;2023-05-24T13:17:18;99257.47;;;25.54;50.12
8069;BME280;4077;43.702;24.896;2023-05-24T13:19:44;99258.56;;;25.50;50.23
8069;BME280;4077;43.702;24.896;2023-05-24T13:22:11;99228.72;;;25.32;50.20